Aviation Digital Data Service (ADDS)

Output produced by METARs form (0418 UTC 19 February 2019)
found at http://www.aviationweather.gov/metar/data/
 
METAR text: FZWA 181500Z 24004KT 9999 FEW018 FEW024CB BKN130 25/23 Q1011 CB SECT W NOSIG
Conditions at: FZWA (MBUJI-MAYI , CD) observed 1500 UTC 18 February 2019
Temperature: 25.0°C (77°F)
Dewpoint: 23.0°C (73°F) [RH = 89%]
Pressure (altimeter): 29.85 inches Hg (1011.0 mb)
Winds: from the WSW (240 degrees) at 5 MPH (4 knots; 2.1 m/s)
Visibility: 6 or more miles (10+ km)
Ceiling: 13000 feet AGL
Clouds: few clouds at 1800 feet AGL
few clouds at 2400 feet AGL
broken clouds at 13000 feet AGL
Weather: no significant weather observed at this time

METAR text: FZWA 181400Z 24006KT SCT018 FEW024CB BKN130 25/21 Q1011 CB SECT SE/W BECMG NSW
Conditions at: FZWA (MBUJI-MAYI , CD) observed 1400 UTC 18 February 2019
Temperature: 25.0°C (77°F)
Dewpoint: 21.0°C (70°F) [RH = 79%]
Pressure (altimeter): 29.85 inches Hg (1011.0 mb)
Winds: from the WSW (240 degrees) at 7 MPH (6 knots; 3.1 m/s)
Visibility: missing
Ceiling: 13000 feet AGL
Clouds: scattered clouds at 1800 feet AGL
few clouds at 2400 feet AGL
broken clouds at 13000 feet AGL
Weather: no significant weather observed at this time

METAR text: FZWA 181000Z 09008KT 7000 SCT018 FEW018CB BKN100 23/15 Q1021 CB SECT E NOSIG
Conditions at: FZWA (MBUJI-MAYI , CD) observed 1000 UTC 18 February 2019
Temperature: 23.0°C (73°F)
Dewpoint: 15.0°C (59°F) [RH = 61%]
Pressure (altimeter): 30.15 inches Hg (1021.0 mb)
Winds: from the E (90 degrees) at 9 MPH (8 knots; 4.1 m/s)
Visibility: 4 miles ( 7 km)
Ceiling: 10000 feet AGL
Clouds: scattered clouds at 1800 feet AGL
few clouds at 1800 feet AGL
broken clouds at 10000 feet AGL
Weather: no significant weather observed at this time

METAR text: FZWA 180900Z 16004KT 9999 SCT014 BKN110 25/22 Q1017 NOSIG
Conditions at: FZWA (MBUJI-MAYI , CD) observed 0900 UTC 18 February 2019
Temperature: 25.0°C (77°F)
Dewpoint: 22.0°C (72°F) [RH = 83%]
Pressure (altimeter): 30.03 inches Hg (1017.0 mb)
Winds: from the SSE (160 degrees) at 5 MPH (4 knots; 2.1 m/s)
Visibility: 6 or more miles (10+ km)
Ceiling: 11000 feet AGL
Clouds: scattered clouds at 1400 feet AGL
broken clouds at 11000 feet AGL
Weather: no significant weather observed at this time

METAR text: FZWA 180800Z 18008KT 9999 SCT010 BKN100 24/21 Q1017 NOSIG
Conditions at: FZWA (MBUJI-MAYI , CD) observed 0800 UTC 18 February 2019
Temperature: 24.0°C (75°F)
Dewpoint: 21.0°C (70°F) [RH = 83%]
Pressure (altimeter): 30.03 inches Hg (1017.0 mb)
Winds: from the S (180 degrees) at 9 MPH (8 knots; 4.1 m/s)
Visibility: 6 or more miles (10+ km)
Ceiling: 10000 feet AGL
Clouds: scattered clouds at 1000 feet AGL
broken clouds at 10000 feet AGL
Weather: no significant weather observed at this time

METAR text: FZWA 180600Z 00000KT 9999 FEW006 BKN100 22/21 Q1016 NOSIG
Conditions at: FZWA (MBUJI-MAYI , CD) observed 0600 UTC 18 February 2019
Temperature: 22.0°C (72°F)
Dewpoint: 21.0°C (70°F) [RH = 94%]
Pressure (altimeter): 30.00 inches Hg (1016.0 mb)
Winds: calm
Visibility: 6 or more miles (10+ km)
Ceiling: 10000 feet AGL
Clouds: few clouds at 600 feet AGL
broken clouds at 10000 feet AGL
Weather: no significant weather observed at this time